South Effingham, New Hampshire
Current Conditions -  °F | °C
As of 2:54 PM on Monday 26 Jan 2015 (Local Time) from KIZG Reporting Station
Clear Clear  
Wind Chill:   Ceiling: Unl
Heat Index: 20°   Visibility: 10mi
Dew Point: -9°   Wind: 9mph
Humidity: 27%   Direction: 110°ESE
Pressure: 30.12"   Gusts: NA
Location:  43.7°N, 70.98°W
Report Text: KIZG 261954Z AUTO 11008KT 10SM CLR M07/M23 A3012 RMK AO2 SLP212 T10671228
Loading
Personal Weather Stations






























Interactive Weather Map New forecast layout! Learn more

10-Day Weather Forecast

Advertisements
Track Severe Weather on mobile